Observations for DECIMOMANNU IT-AFB, Italy (LIED)

LIED 191855Z 09004KT CAVOK 21/18 Q1013  
LIED 191855Z 09004KT CAVOK 21/18 Q1013 RMK SKC VIS MIN 9999 WIND THR35 12007KT WIND THR17 /////KT BLU
LIED 191755Z 13009KT CAVOK 22/18 Q1013 RMK SKC VIS MIN 9999 WIND THR35 13009KT WIND THR17 /////KT BLU   
LIED 191655Z 14012KT 9999 FEW010 22/19 Q1013 RMK SCT VIS MIN 9999 WIND THR35 14013KT WIND THR17 /////KT BLU 
LIED 191555Z 14013KT 9999 SCT030 23/20 Q1013 RMK SCT VIS MIN 9999 WIND THR35 14014KT WIND THR17 /////KT BLU 
LIED 191455Z 15015KT 9999 SCT025 25/22 Q1013 RMK SCT VIS MIN 9999 BLU   
LIED 191355Z 14013KT 9999 SCT025 26/22 Q1013 RMK SCT VIS MIN 9999 WIND THR35 13017KT WIND THR17 /////KT BLU 
LIED 191255Z 14013KT 9999 FEW010 26/21 Q1014 RMK SCT VIS MIN 9999 WIND THR35 14012KT WIND THR17 /////KT BLU 
LIED 191155Z 14013KT 9999 SCT025 26/21 Q1014 RMK SCT VIS MIN 9999 WIND THR35 14012KT WIND THR17 /////KT BLU 
LIED 191055Z 15011KT 9999 FEW010 26/19 Q1015 RMK SCT VIS MIN 9999 WIND THR35 14014KT WIND THR17 /////KT BLU 
LIED 190955Z 14010KT 9999 FEW010 SCT035 25/20 Q1015 
LIED 190955Z 14010KT 9999 FEW010 SCT035 25/20 Q1015 RMK SCT VIS MIN 9999 WIND THR35 14009KT WIND THR17 /////KT BLU
LIED 190855Z 15006KT 9999 FEW010 24/19 Q1015 RMK SCT VIS MIN 9999 WIND THR35 KT WIND THR17 /////KT BLU  
LIED 190755Z VRB01KT 9999 FEW010 20/16 Q1015
LIED 190755Z VRB01KT 9999 FEW010 20/16 Q1015 RMK SCT VIS MIN 9999 WIND THR35 VRB01KT WIND THR17 /////KT BLU
LIED 190655Z 32002KT 9999 FEW010 SCT020 15/12 Q1015 RMK SCT VIS MIN 9999 WIND THR35 31002KT WIND THR17 /////KT BLU  
LIED 190555Z 31003KT 9999 SCT018 14/11 Q1015
LIED 190555Z 31003KT 9999 SCT018 14/11 Q1015 RMK BKN SCT100 VIS MIN 9999 WIND THR35 28002KT WIND THR17 /////KT BLU
LIED 190455Z 35003KT 9999 FEW015 14/11 Q1016
LIED 190455Z 35003KT 9999 FEW015 14/11 Q1016 RMK SCT SCT100 VIS MIN 9999 WIND THR35 33002KT WIND THR17 /////KT BLU
LIED 190355Z 34002KT 9999 FEW020 14/11 Q1016
LIED 190355Z 34002KT 9999 FEW020 14/11 Q1016 RMK FEW VIS MIN 9999 WIND THR35 34002KT WIND THR17 /////KT BLU
LIED 190255Z 32004KT 9999 SCT018 14/11 Q1016 RMK SCT VIS MIN 9999 WIND THR35 32004KT WIND THR17 /////KT BLU 
LIED 190155Z 29002KT CAVOK 15/12 Q1016 RMK SKC VIS MIN 9999 WIND THR35 28002KT WIND THR17 /////KT BLU   
LIED 190055Z 34003KT CAVOK 15/12 Q1017 RMK SKC VIS MIN 9999 WIND THR35 34004KT WIND THR17 /////KT BLU   
LIED 182355Z 28003KT CAVOK 15/12 Q1016 RMK SKC VIS MIN 9999 WIND THR35 30003KT WIND THR17 /////KT BLU   
LIED 182255Z 36002KT CAVOK 16/13 Q1016 RMK SKC VIS MIN 9999 WIND THR35 31002KT WIND THR17 /////KT BLU   
LIED 182155Z 33002KT CAVOK 16/13 Q1017 RMK SKC VIS MIN 9999 WIND THR35 35002KT WIND THR17 /////KT BLU   
LIED 182055Z 16002KT CAVOK 18/15 Q1017 RMK SKC VIS MIN 9999 WIND THR35 20002KT WIND THR17 /////KT BLU   
LIED 181955Z 15002KT 9999 FEW025 19/16 Q1016 RMK FEW VIS MIN 9999 WIND THR35 20003KT WIND THR17 /////KT BLU